Time;durP1;ratioP1;P1;durP2;ratioP2;P2;SDS_P1;SDS_P2;PMS_P1;PMS_P2;Temp;Humidity;BMP_temperature;BMP_pressure;BME280_temperature;BME280_humidity;BME280_pressure;Samples;Min_cycle;Max_cycle;Signal;HPM_P1;HPM_P2
2022/09/13 00:00:51;;;;;;;13.00;7.60;;;;;;;17.99;100.00;96082.09;5140387;27;20059;-51
2022/09/13 00:03:20;;;;;;;10.02;7.70;;;;;;;18.34;100.00;96083.81;5138820;27;20078;-47
2022/09/13 00:05:49;;;;;;;10.57;8.65;;;;;;;18.41;100.00;96090.00;5137380;27;20077;-54
2022/09/13 00:08:18;;;;;;;10.13;8.52;;;;;;;18.55;100.00;96083.69;5138968;27;20067;-50
2022/09/13 00:10:46;;;;;;;10.68;8.18;;;;;;;18.56;100.00;96087.97;5137982;27;20082;-50
2022/09/13 00:13:16;;;;;;;10.05;7.70;;;;;;;18.67;100.00;96084.69;5137225;27;20083;-51
2022/09/13 00:15:46;;;;;;;7.70;6.32;;;;;;;18.64;100.00;96082.44;5144399;27;20086;-52
2022/09/13 00:18:17;;;;;;;9.48;7.00;;;;;;;18.33;100.00;96075.00;5140769;27;20082;-47
2022/09/13 00:20:45;;;;;;;8.63;7.18;;;;;;;17.98;100.00;96069.78;5143568;27;20611;-53
2022/09/13 00:23:14;;;;;;;9.90;7.13;;;;;;;18.21;100.00;96065.94;5138371;27;20451;-50
2022/09/13 00:25:42;;;;;;;8.75;6.22;;;;;;;17.46;100.00;96052.50;5141384;27;20109;-48
2022/09/13 00:28:10;;;;;;;8.40;6.53;;;;;;;17.51;100.00;96044.72;5136019;27;20082;-51
2022/09/13 00:30:39;;;;;;;8.10;6.00;;;;;;;17.30;100.00;96040.31;5143336;27;20078;-51
2022/09/13 00:33:07;;;;;;;9.77;7.50;;;;;;;17.49;100.00;96029.97;5139109;27;20087;-51
2022/09/13 00:35:37;;;;;;;8.88;7.10;;;;;;;17.30;100.00;96032.34;5139222;27;20066;-49
2022/09/13 00:38:05;;;;;;;10.63;7.50;;;;;;;18.15;100.00;96029.41;5139417;27;20078;-49
2022/09/13 00:40:37;;;;;;;7.95;5.70;;;;;;;17.59;100.00;96035.75;5142428;27;20078;-49
2022/09/13 00:43:09;;;;;;;6.43;4.93;;;;;;;17.62;100.00;96042.53;5138905;27;20077;-49
2022/09/13 00:45:39;;;;;;;6.20;5.32;;;;;;;17.55;100.00;96047.84;5137260;27;20070;-52
2022/09/13 00:48:08;;;;;;;7.30;5.18;;;;;;;17.49;100.00;96052.13;5142554;27;20086;-52
2022/09/13 00:50:39;;;;;;;6.78;4.80;;;;;;;17.68;100.00;96053.22;5140814;27;20074;-54
2022/09/13 00:53:11;;;;;;;5.85;4.60;;;;;;;17.59;100.00;96056.28;5138373;27;20062;-48
2022/09/13 00:55:43;;;;;;;5.22;4.35;;;;;;;17.03;100.00;96059.84;5139293;27;20069;-51
2022/09/13 00:58:14;;;;;;;7.53;4.82;;;;;;;16.95;100.00;96060.00;5140418;27;20094;-52
2022/09/13 01:00:44;;;;;;;7.13;5.03;;;;;;;16.96;100.00;96053.63;5139926;27;20079;-48
2022/09/13 01:03:14;;;;;;;7.55;5.68;;;;;;;16.44;100.00;96037.03;5141002;27;21109;-51
2022/09/13 01:05:47;;;;;;;6.77;5.03;;;;;;;16.98;100.00;96039.13;5139766;27;20086;-49
2022/09/13 01:08:21;;;;;;;7.55;5.55;;;;;;;16.57;100.00;96037.16;5139285;27;20101;-50
2022/09/13 01:10:51;;;;;;;6.40;5.47;;;;;;;16.41;100.00;96029.41;5138900;27;20081;-52
2022/09/13 01:13:21;;;;;;;8.68;6.50;;;;;;;16.68;100.00;96025.13;5140588;27;20075;-53
2022/09/13 01:15:50;;;;;;;12.65;6.68;;;;;;;17.06;100.00;96014.16;5140304;27;20481;-49
2022/09/13 01:18:19;;;;;;;7.32;6.07;;;;;;;16.72;100.00;96015.75;5139824;27;20703;-49
2022/09/13 01:21:06;;;;;;;8.07;6.38;;;;;;;16.62;100.00;96012.63;5138296;27;20090;-54
2022/09/13 01:23:51;;;;;;;8.95;7.72;;;;;;;16.68;100.00;96014.50;5138063;27;20100;-47
2022/09/13 01:26:35;;;;;;;10.90;7.40;;;;;;;17.16;100.00;96013.81;5139832;27;20074;-50
2022/09/13 01:29:10;;;;;;;7.72;6.28;;;;;;;17.47;100.00;96016.81;5139429;27;20085;-53
2022/09/13 01:31:45;;;;;;;8.25;6.07;;;;;;;17.52;100.00;96006.41;5137863;27;20571;-51
2022/09/13 01:34:21;;;;;;;6.63;5.75;;;;;;;17.47;100.00;96016.00;5141605;27;20090;-48
2022/09/13 01:36:58;;;;;;;7.88;6.00;;;;;;;17.38;100.00;96010.03;5134694;27;20063;-50
2022/09/13 01:39:38;;;;;;;9.10;6.75;;;;;;;17.41;100.00;96001.66;5138757;27;20167;-50
2022/09/13 01:42:14;;;;;;;10.70;7.75;;;;;;;17.13;100.00;95998.22;5138479;27;20077;-52
2022/09/13 01:44:53;;;;;;;13.18;8.13;;;;;;;16.84;100.00;95997.44;5141587;27;20074;-48
2022/09/13 01:47:27;;;;;;;12.50;8.40;;;;;;;16.90;100.00;96001.19;5138843;27;20098;-49
2022/09/13 01:50:04;;;;;;;9.32;7.20;;;;;;;17.25;100.00;96002.81;5134665;27;20465;-48
2022/09/13 01:52:38;;;;;;;8.23;6.57;;;;;;;17.37;100.00;96000.38;5142048;27;20590;-53
2022/09/13 01:55:09;;;;;;;9.98;6.10;;;;;;;17.17;100.00;95997.66;5134699;27;20067;-53
2022/09/13 01:57:38;;;;;;;;;;;;;;;16.95;100.00;95999.56;5140570;27;20073;-51
2022/09/13 02:00:09;;;;;;;8.57;5.32;;;;;;;16.92;100.00;95991.13;5131160;27;20336;-53
2022/09/13 02:02:41;;;;;;;7.72;4.75;;;;;;;16.99;100.00;95997.31;5137601;27;20043;-47
2022/09/13 02:05:13;;;;;;;6.63;5.43;;;;;;;17.23;100.00;96004.00;5137463;27;20074;-52
2022/09/13 02:07:44;;;;;;;8.00;6.20;;;;;;;17.17;100.00;96010.13;5145809;27;20187;-54
2022/09/13 02:10:15;;;;;;;10.32;7.00;;;;;;;16.80;100.00;96007.66;5140678;27;20070;-51
2022/09/13 02:12:45;;;;;;;6.85;5.43;;;;;;;16.94;100.00;95997.91;5139218;27;20077;-53
2022/09/13 02:15:17;;;;;;;11.07;7.10;;;;;;;16.79;100.00;96005.19;5134197;27;20071;-50
2022/09/13 02:17:50;;;;;;;9.95;7.78;;;;;;;16.24;100.00;96002.28;5143404;27;20093;-50
2022/09/13 02:20:22;;;;;;;12.32;8.95;;;;;;;16.16;100.00;95999.72;5144055;27;20085;-51
2022/09/13 02:22:54;;;;;;;12.77;9.00;;;;;;;15.89;100.00;96004.78;5137497;27;20085;-49
2022/09/13 02:25:23;;;;;;;10.50;8.18;;;;;;;16.13;100.00;96008.91;5140383;27;20079;-49
2022/09/13 02:27:56;;;;;;;10.25;8.20;;;;;;;16.57;100.00;96005.19;5139251;27;20112;-52
2022/09/13 02:30:25;;;;;;;10.30;8.02;;;;;;;16.68;100.00;96009.16;5138881;27;20085;-51
2022/09/13 02:32:56;;;;;;;10.05;7.95;;;;;;;16.65;100.00;96009.53;5138319;27;20078;-54
2022/09/13 02:35:30;;;;;;;11.25;7.97;;;;;;;16.41;100.00;96020.63;5144214;27;20676;-50
2022/09/13 02:38:03;;;;;;;9.25;6.50;;;;;;;16.90;100.00;96011.81;5143009;27;20085;-50
2022/09/13 02:40:35;;;;;;;8.00;6.63;;;;;;;16.87;100.00;96015.69;5143631;27;20086;-57
2022/09/13 02:43:06;;;;;;;8.73;6.40;;;;;;;16.91;100.00;96016.13;5129917;27;20086;-49
2022/09/13 02:45:42;;;;;;;9.30;6.80;;;;;;;16.61;100.00;96018.94;5138124;27;20089;-53
2022/09/13 02:48:19;;;;;;;8.23;6.68;;;;;;;16.48;100.00;96022.34;5142612;27;20082;-50
2022/09/13 02:50:57;;;;;;;7.43;6.43;;;;;;;16.95;100.00;96015.53;5139748;27;20171;-48
2022/09/13 02:53:29;;;;;;;8.73;6.68;;;;;;;16.95;100.00;96018.19;5142802;27;20074;-49
2022/09/13 02:56:04;;;;;;;8.60;6.50;;;;;;;17.10;100.00;96020.72;5136188;27;20090;-53
2022/09/13 02:58:37;;;;;;;6.35;5.47;;;;;;;17.07;100.00;96021.16;5140576;27;20535;-57
2022/09/13 03:01:06;;;;;;;6.90;5.05;;;;;;;17.04;100.00;96017.03;5133474;27;20477;-52
2022/09/13 03:03:36;;;;;;;7.70;5.30;;;;;;;16.94;100.00;96016.56;5139320;27;20078;-50
2022/09/13 03:06:04;;;;;;;7.13;5.03;;;;;;;16.42;100.00;96016.97;5138745;27;20071;-51
2022/09/13 03:08:33;;;;;;;5.82;5.03;;;;;;;16.46;100.00;96012.91;5139113;27;20101;-55
2022/09/13 03:11:11;;;;;;;6.70;5.82;;;;;;;16.45;100.00;96008.56;5142006;27;20077;-49
2022/09/13 03:14:09;;;;;;;9.40;7.70;;;;;;;16.09;100.00;96017.47;5135591;27;20054;-52
2022/09/13 03:16:45;;;;;;;11.07;7.88;;;;;;;16.04;100.00;96012.72;5136529;27;20090;-51
2022/09/13 03:19:25;;;;;;;8.52;6.90;;;;;;;15.99;100.00;96011.63;5140730;27;20471;-48
2022/09/13 03:22:02;;;;;;;9.35;7.18;;;;;;;16.16;100.00;96006.91;5141203;27;20066;-50
2022/09/13 03:24:37;;;;;;;7.60;6.10;;;;;;;16.50;100.00;96003.50;5139919;27;20600;-50
2022/09/13 03:27:13;;;;;;;9.25;6.22;;;;;;;16.65;100.00;96000.75;5136284;27;20752;-53
2022/09/13 03:29:45;;;;;;;7.07;5.68;;;;;;;16.35;100.00;96000.94;5142080;27;20376;-48
2022/09/13 03:32:21;;;;;;;6.47;5.45;;;;;;;16.38;100.00;95987.25;5132494;27;20075;-52
2022/09/13 03:34:58;;;;;;;7.32;5.25;;;;;;;16.60;100.00;96004.00;5138943;27;20516;-50
2022/09/13 03:37:31;;;;;;;7.72;5.70;;;;;;;16.54;100.00;96005.59;5136913;27;20058;-56
2022/09/13 03:40:03;;;;;;;8.27;5.13;;;;;;;16.55;100.00;95985.97;5141181;27;20090;-48
2022/09/13 03:42:35;;;;;;;7.60;6.78;;;;;;;16.02;100.00;95985.50;5132110;27;20086;-58
2022/09/13 03:45:05;;;;;;;7.75;6.30;;;;;;;16.35;100.00;95985.78;5140131;27;20074;-50
2022/09/13 03:47:35;;;;;;;7.50;6.40;;;;;;;16.22;100.00;95993.66;5147244;27;20540;-49
2022/09/13 03:50:07;;;;;;;8.27;6.18;;;;;;;15.97;100.00;95992.41;5146016;27;20094;-49
2022/09/13 03:52:36;;;;;;;7.63;5.82;;;;;;;16.33;100.00;95989.66;5131393;27;20086;-50
2022/09/13 03:55:05;;;;;;;7.10;6.10;;;;;;;16.43;100.00;95984.81;5141686;27;20086;-47
2022/09/13 03:57:33;;;;;;;8.90;6.20;;;;;;;16.14;100.00;95985.81;5151514;27;20085;-51
2022/09/13 04:00:02;;;;;;;9.70;6.50;;;;;;;16.11;100.00;95988.84;5134191;27;20093;-54
2022/09/13 04:02:30;;;;;;;10.57;7.47;;;;;;;16.34;100.00;95988.63;5144120;27;20096;-52
2022/09/13 04:04:59;;;;;;;9.32;7.22;;;;;;;15.71;100.00;95999.06;5148141;27;20078;-50
2022/09/13 04:07:29;;;;;;;7.88;6.82;;;;;;;16.31;100.00;95992.53;5144484;27;20110;-50
2022/09/13 04:09:57;;;;;;;8.05;6.90;;;;;;;16.18;100.00;95988.91;5137347;27;20093;-48
2022/09/13 04:12:25;;;;;;;7.28;5.10;;;;;;;16.02;100.00;95996.13;5140439;27;20492;-50
2022/09/13 04:14:54;;;;;;;8.07;6.30;;;;;;;16.32;100.00;95993.34;5139490;27;20089;-47
2022/09/13 04:17:22;;;;;;;8.45;6.90;;;;;;;16.17;100.00;95996.06;5152314;27;20089;-47
2022/09/13 04:19:51;;;;;;;7.95;5.80;;;;;;;15.83;100.00;96007.41;5132993;27;20078;-53
2022/09/13 04:22:19;;;;;;;6.93;5.68;;;;;;;16.16;100.00;96002.41;5142799;27;20074;-54
2022/09/13 04:24:49;;;;;;;8.35;5.90;;;;;;;16.44;100.00;95998.94;5139705;27;20089;-50
2022/09/13 04:27:17;;;;;;;11.03;6.10;;;;;;;16.26;100.00;96000.22;5132856;27;20093;-51
2022/09/13 04:29:45;;;;;;;7.20;5.90;;;;;;;16.40;100.00;96005.69;5146061;27;20093;-56
2022/09/13 04:32:13;;;;;;;8.68;5.45;;;;;;;16.44;100.00;96002.44;5132180;27;20090;-55
2022/09/13 04:34:42;;;;;;;7.70;5.55;;;;;;;16.51;100.00;96003.31;5143706;27;20083;-51
2022/09/13 04:37:11;;;;;;;7.28;5.30;;;;;;;16.50;100.00;96011.50;5138060;27;20079;-53
2022/09/13 04:39:39;;;;;;;9.13;5.60;;;;;;;16.59;100.00;96011.16;5140680;27;20763;-53
2022/09/13 04:42:10;;;;;;;6.22;4.63;;;;;;;16.55;100.00;96012.56;5145192;27;20081;-58
2022/09/13 04:44:38;;;;;;;6.82;5.05;;;;;;;16.28;100.00;96019.50;5132282;27;20075;-57
2022/09/13 04:47:07;;;;;;;8.07;5.13;;;;;;;16.17;100.00;96019.19;5131709;27;20082;-55
2022/09/13 04:49:36;;;;;;;7.50;4.50;;;;;;;16.24;100.00;96018.25;5131265;27;20091;-52
2022/09/13 04:52:05;;;;;;;5.07;4.57;;;;;;;16.45;100.00;96016.56;5135700;27;20086;-55
2022/09/13 04:54:33;;;;;;;5.10;4.60;;;;;;;16.20;100.00;96026.78;5142351;27;20082;-55
2022/09/13 04:57:01;;;;;;;6.22;4.53;;;;;;;16.23;100.00;96015.75;5144331;27;20126;-51
2022/09/13 04:59:31;;;;;;;5.72;4.45;;;;;;;16.67;100.00;96012.03;5138654;27;20089;-52
2022/09/13 05:02:00;;;;;;;5.00;4.50;;;;;;;16.83;100.00;96015.25;5139162;27;20082;-53
2022/09/13 05:04:28;;;;;;;6.60;4.55;;;;;;;16.97;100.00;96005.50;5149148;27;20129;-50
2022/09/13 05:06:57;;;;;;;5.78;5.15;;;;;;;17.26;100.00;96008.94;5143070;27;20523;-53
2022/09/13 05:09:26;;;;;;;5.75;4.97;;;;;;;17.94;100.00;96006.38;5142496;27;20078;-57
2022/09/13 05:11:54;;;;;;;7.22;5.22;;;;;;;18.49;100.00;95999.84;5142091;27;20075;-54
2022/09/13 05:14:22;;;;;;;5.97;4.30;;;;;;;18.19;100.00;96009.28;5140203;27;20081;-52
2022/09/13 05:16:52;;;;;;;8.38;4.00;;;;;;;18.41;100.00;96007.22;5137849;27;20494;-51
2022/09/13 05:19:20;;;;;;;6.10;4.20;;;;;;;17.95;100.00;96021.34;5146198;27;20070;-55
2022/09/13 05:21:50;;;;;;;9.13;6.63;;;;;;;17.64;100.00;96014.66;5137923;27;20055;-53
2022/09/13 05:24:18;;;;;;;7.93;7.03;;;;;;;17.27;100.00;96014.09;5138340;27;20249;-50
2022/09/13 05:26:46;;;;;;;4.88;4.38;;;;;;;17.27;100.00;96015.91;5140739;27;20082;-57
2022/09/13 05:29:15;;;;;;;7.40;4.75;;;;;;;17.41;100.00;96012.31;5144490;27;20093;-54
2022/09/13 05:31:43;;;;;;;5.53;5.03;;;;;;;17.81;100.00;96014.31;5143403;27;20081;-54
2022/09/13 05:34:15;;;;;;;5.70;4.10;;;;;;;17.32;100.00;96030.31;5144577;27;20144;-54
2022/09/13 05:36:44;;;;;;;4.90;3.80;;;;;;;17.61;100.00;96038.22;5137591;27;20081;-52
2022/09/13 05:39:14;;;;;;;4.25;3.67;;;;;;;17.55;100.00;96038.00;5144597;27;20054;-53
2022/09/13 05:42:02;;;;;;;5.07;3.67;;;;;;;18.06;100.00;96026.06;5137240;27;20081;-58
2022/09/13 05:44:31;;;;;;;4.35;3.70;;;;;;;17.81;100.00;96030.34;5137903;27;20090;-51
2022/09/13 05:46:59;;;;;;;4.95;4.25;;;;;;;17.86;100.00;96020.72;5132090;27;20074;-52
2022/09/13 05:49:29;;;;;;;7.65;3.65;;;;;;;18.42;100.00;96011.56;5150610;27;20078;-52
2022/09/13 05:51:57;;;;;;;5.07;3.83;;;;;;;18.21;100.00;96016.06;5137421;27;20082;-52
2022/09/13 05:54:26;;;;;;;7.05;3.97;;;;;;;18.18;100.00;96024.47;5131371;27;20074;-52
2022/09/13 05:56:56;;;;;;;3.92;3.53;;;;;;;18.55;100.00;96019.59;5145713;27;20552;-51
2022/09/13 05:59:24;;;;;;;5.03;3.40;;;;;;;18.61;100.00;96015.25;5132844;27;20090;-53
2022/09/13 06:01:53;;;;;;;4.38;3.78;;;;;;;18.67;100.00;96009.91;5137779;27;20090;-54
2022/09/13 06:04:21;;;;;;;4.15;3.60;;;;;;;18.94;100.00;95994.72;5154130;27;20479;-53
2022/09/13 06:06:51;;;;;;;6.22;3.72;;;;;;;19.04;100.00;95994.28;5145698;27;20085;-51
2022/09/13 06:09:19;;;;;;;4.25;3.35;;;;;;;19.04;100.00;95991.63;5139112;27;20489;-52
2022/09/13 06:11:48;;;;;;;4.95;3.60;;;;;;;19.15;100.00;95987.47;5146672;27;20551;-52
2022/09/13 06:14:16;;;;;;;4.22;3.60;;;;;;;19.28;100.00;95999.97;5141896;27;20089;-50
2022/09/13 06:16:44;;;;;;;6.13;3.25;;;;;;;19.87;100.00;95999.75;5137512;27;20078;-51
2022/09/13 06:19:13;;;;;;;3.70;3.13;;;;;;;18.85;100.00;96017.31;5141653;27;20082;-52
2022/09/13 06:21:41;;;;;;;4.38;2.97;;;;;;;19.64;100.00;96010.16;5129184;27;20094;-57
2022/09/13 06:24:11;;;;;;;4.80;3.17;;;;;;;19.76;100.00;96018.34;5139496;27;20082;-50
2022/09/13 06:26:39;;;;;;;5.05;3.20;;;;;;;19.59;100.00;96002.75;5138667;27;20043;-54
2022/09/13 06:29:11;;;;;;;4.15;3.08;;;;;;;20.17;100.00;96011.75;5145604;27;20536;-55
2022/09/13 06:31:43;;;;;;;6.25;3.40;;;;;;;20.00;100.00;96011.44;5140003;27;20079;-53
2022/09/13 06:34:13;;;;;;;3.97;2.88;;;;;;;20.48;100.00;96006.38;5147757;27;20516;-55
2022/09/13 06:36:41;;;;;;;5.47;3.28;;;;;;;20.74;100.00;96007.22;5150491;27;20086;-56
2022/09/13 06:39:11;;;;;;;3.53;3.22;;;;;;;20.36;100.00;96008.09;5150573;27;20563;-48
2022/09/13 06:41:39;;;;;;;3.30;2.73;;;;;;;21.10;100.00;95996.56;5131758;27;20093;-51
2022/09/13 06:44:07;;;;;;;4.65;2.90;;;;;;;20.98;100.00;95986.78;5134752;27;20089;-52
2022/09/13 06:46:36;;;;;;;6.70;2.90;;;;;;;21.36;100.00;95986.63;5141923;27;20075;-51
2022/09/13 06:49:06;;;;;;;7.07;3.40;;;;;;;21.25;100.00;95979.28;5134835;27;20086;-51
2022/09/13 06:51:36;;;;;;;4.43;2.90;;;;;;;21.27;100.00;95977.22;5131132;27;20093;-50
2022/09/13 06:54:04;;;;;;;4.85;3.50;;;;;;;21.67;100.00;95985.63;5131862;27;20075;-52
2022/09/13 06:56:35;;;;;;;4.47;3.00;;;;;;;20.96;100.00;95991.56;5140959;27;20086;-50
2022/09/13 06:59:06;;;;;;;5.78;3.10;;;;;;;21.78;100.00;95992.94;5147322;27;20078;-55
2022/09/13 07:01:35;;;;;;;;;;;;;;;21.93;100.00;95995.19;5138695;27;20095;-50
2022/09/13 07:04:05;;;;;;;6.65;2.90;;;;;;;21.68;100.00;96008.75;5144065;27;19957;-53
2022/09/13 07:06:35;;;;;;;7.28;3.35;;;;;;;21.51;100.00;96010.41;5142194;27;20465;-54
2022/09/13 07:09:05;;;;;;;4.50;3.20;;;;;;;21.96;100.00;96005.47;5132143;27;20512;-52
2022/09/13 07:11:37;;;;;;;9.82;3.45;;;;;;;21.81;100.00;96013.91;5127978;28;20083;-54
2022/09/13 07:14:24;;;;;;;4.35;3.35;;;;;;;22.65;100.00;96003.25;5129879;28;20450;-50
2022/09/13 07:16:53;;;;;;;5.40;3.13;;;;;;;22.96;100.00;95999.44;5129103;27;20118;-47
2022/09/13 07:19:23;;;;;;;4.07;3.03;;;;;;;22.90;100.00;95994.97;5130659;27;20086;-52
2022/09/13 07:21:52;;;;;;;4.22;3.10;;;;;;;23.18;100.00;95996.16;5133105;27;20086;-52
2022/09/13 07:24:21;;;;;;;7.93;3.38;;;;;;;21.93;100.00;96007.81;5145012;27;20074;-49
2022/09/13 07:26:51;;;;;;;4.05;3.15;;;;;;;22.84;100.00;96001.25;5148489;27;20090;-54
2022/09/13 07:29:21;;;;;;;5.15;3.42;;;;;;;22.30;100.00;96018.47;5139680;27;20078;-50
2022/09/13 07:31:51;;;;;;;6.43;2.90;;;;;;;23.78;100.00;96000.38;5148438;27;20083;-51
2022/09/13 07:34:21;;;;;;;4.32;3.10;;;;;;;23.81;100.00;96003.44;5147645;27;20082;-50
2022/09/13 07:36:51;;;;;;;4.95;3.00;;;;;;;24.55;100.00;96000.75;5152027;27;20093;-56
2022/09/13 07:39:19;;;;;;;8.13;3.17;;;;;;;24.42;100.00;96008.34;5153674;27;20078;-51
2022/09/13 07:41:52;;;;;;;4.50;3.08;;;;;;;24.31;100.00;96008.13;5146281;27;20140;-49
2022/09/13 07:44:21;;;;;;;3.95;3.10;;;;;;;23.54;100.00;96013.09;5141153;27;20094;-51
2022/09/13 07:46:50;;;;;;;5.22;3.10;;;;;;;24.71;100.00;96004.53;5140739;27;20086;-48
2022/09/13 07:49:18;;;;;;;8.32;3.20;;;;;;;24.65;100.00;96010.91;5151556;27;20085;-54
2022/09/13 07:51:49;;;;;;;3.78;2.88;;;;;;;24.08;100.00;96006.34;5145284;27;20520;-54
2022/09/13 07:54:19;;;;;;;5.97;2.97;;;;;;;25.13;100.00;96006.81;5145557;27;20323;-48
2022/09/13 07:56:49;;;;;;;6.70;3.00;;;;;;;25.07;100.00;96007.78;5141394;27;20081;-54
2022/09/13 07:59:19;;;;;;;6.75;2.85;;;;;;;25.47;96.79;96001.34;5137696;27;20071;-57
2022/09/13 08:01:48;;;;;;;4.25;2.80;;;;;;;25.68;95.97;96005.13;5138301;27;20078;-54
2022/09/13 08:04:18;;;;;;;4.43;2.93;;;;;;;26.12;98.29;96000.53;5153421;27;20485;-50
2022/09/13 08:06:49;;;;;;;6.93;5.35;;;;;;;27.17;81.28;95998.22;5138615;27;20083;-55
2022/09/13 08:09:17;;;;;;;7.13;3.67;;;;;;;27.50;79.05;95992.75;5133542;27;20082;-54
2022/09/13 08:11:47;;;;;;;4.75;3.10;;;;;;;27.15;82.34;95988.72;5132397;27;20090;-48
2022/09/13 08:14:17;;;;;;;5.70;4.00;;;;;;;26.94;83.92;95985.03;5135908;27;20085;-49
2022/09/13 08:16:47;;;;;;;5.95;3.10;;;;;;;27.73;74.90;95994.16;5139611;27;20093;-52
2022/09/13 08:19:17;;;;;;;4.15;2.20;;;;;;;27.94;65.36;95979.63;5139179;27;20089;-51
2022/09/13 08:21:48;;;;;;;4.07;2.70;;;;;;;28.28;61.15;95973.75;5147405;27;20414;-54
2022/09/13 08:24:18;;;;;;;3.78;2.63;;;;;;;27.77;67.31;95984.47;5145552;27;20074;-55
2022/09/13 08:26:46;;;;;;;3.67;2.30;;;;;;;27.82;69.83;95984.50;5134012;27;20109;-51
2022/09/13 08:29:15;;;;;;;3.33;2.22;;;;;;;27.07;72.09;95987.28;5150476;27;20089;-53
2022/09/13 08:31:43;;;;;;;4.07;2.33;;;;;;;27.42;69.36;95997.53;5133280;27;20119;-56
2022/09/13 08:34:14;;;;;;;2.90;1.95;;;;;;;27.51;71.28;95989.75;5139959;27;20078;-49
2022/09/13 08:36:43;;;;;;;4.25;1.95;;;;;;;27.21;69.97;95993.91;5134813;27;20074;-51
2022/09/13 08:39:12;;;;;;;5.22;2.38;;;;;;;27.43;67.98;95998.38;5144255;27;20082;-55
2022/09/13 08:42:01;;;;;;;3.92;2.15;;;;;;;27.53;66.89;95992.19;5139166;27;20086;-52
2022/09/13 08:44:31;;;;;;;4.45;2.25;;;;;;;26.97;70.34;95995.34;5139082;27;20082;-48
2022/09/13 08:47:07;;;;;;;4.40;2.88;;;;;;;28.27;58.95;95978.38;5141332;27;20070;-52
2022/09/13 08:49:42;;;;;;;4.32;2.00;;;;;;;27.09;57.75;95977.03;5144521;27;20094;-52
2022/09/13 08:52:29;;;;;;;2.80;1.55;;;;;;;27.42;59.07;95975.88;5149608;27;20105;-50
2022/09/13 08:54:58;;;;;;;2.47;1.45;;;;;;;27.11;54.00;95974.88;5139685;27;20090;-49
2022/09/13 08:57:30;;;;;;;3.25;1.58;;;;;;;27.96;54.78;95969.34;5133179;27;20492;-54
2022/09/13 09:00:03;;;;;;;1.50;1.30;;;;;;;27.64;56.31;95983.03;5147406;27;20070;-49
2022/09/13 09:02:51;;;;;;;4.82;1.70;;;;;;;27.77;56.79;95984.47;5139994;27;20086;-51
2022/09/13 09:05:22;;;;;;;3.28;1.60;;;;;;;28.11;55.96;95982.13;5144172;27;20089;-52
2022/09/13 09:07:54;;;;;;;1.95;1.48;;;;;;;26.72;59.24;96004.91;5137259;27;20074;-49
2022/09/13 09:10:24;;;;;;;3.75;1.55;;;;;;;27.11;60.25;96001.13;5137772;27;20085;-51
2022/09/13 09:12:55;;;;;;;2.20;1.60;;;;;;;28.16;54.15;95985.66;5138079;27;20082;-48
2022/09/13 09:15:25;;;;;;;5.40;1.52;;;;;;;27.33;56.20;95982.09;5138482;27;20074;-52
2022/09/13 09:17:57;;;;;;;2.28;1.42;;;;;;;28.44;52.69;95974.63;5136367;27;20085;-57
2022/09/13 09:20:32;;;;;;;3.00;1.65;;;;;;;28.75;52.98;95978.16;5131504;27;20078;-52
2022/09/13 09:23:05;;;;;;;2.00;1.60;;;;;;;28.04;54.49;95976.97;5144214;27;20085;-53
2022/09/13 09:25:34;;;;;;;3.67;1.65;;;;;;;27.74;54.53;95969.53;5142255;27;20078;-51
2022/09/13 09:28:10;;;;;;;4.25;1.70;;;;;;;28.85;52.92;95962.69;5131211;27;20071;-55
2022/09/13 09:30:43;;;;;;;2.47;1.70;;;;;;;27.99;55.28;95963.41;5148068;27;20093;-54
2022/09/13 09:33:24;;;;;;;2.50;1.77;;;;;;;28.34;54.56;95961.84;5145391;27;20078;-52
2022/09/13 09:36:00;;;;;;;6.25;1.85;;;;;;;28.86;52.12;95950.72;5141662;27;20082;-48
2022/09/13 09:38:42;;;;;;;2.60;1.80;;;;;;;28.81;52.67;95944.53;5131176;27;20082;-52
2022/09/13 09:41:21;;;;;;;3.22;2.58;;;;;;;27.98;60.02;95952.81;5137868;27;20039;-54
2022/09/13 09:43:53;;;;;;;3.83;2.95;;;;;;;29.07;50.15;95953.44;5141291;27;20524;-51
2022/09/13 09:46:25;;;;;;;9.02;8.23;;;;;;;28.65;50.76;95948.31;5140447;27;20086;-51
2022/09/13 09:48:56;;;;;;;5.07;4.60;;;;;;;28.76;53.15;95941.78;5142797;27;20066;-50
2022/09/13 09:51:28;;;;;;;4.20;3.83;;;;;;;29.08;51.21;95945.03;5138144;27;20119;-49
2022/09/13 09:54:00;;;;;;;5.05;1.60;;;;;;;28.75;53.38;95935.56;5147467;27;20084;-55
2022/09/13 09:56:31;;;;;;;3.83;1.40;;;;;;;28.68;53.27;95943.16;5148515;27;20086;-51
2022/09/13 09:59:01;;;;;;;2.72;1.50;;;;;;;28.84;52.78;95939.34;5150764;27;20445;-50
2022/09/13 10:01:31;;;;;;;3.03;1.50;;;;;;;29.88;48.77;95938.78;5144313;27;20082;-53
2022/09/13 10:04:07;;;;;;;1.83;1.38;;;;;;;29.08;49.33;95941.53;5139780;27;20089;-54
2022/09/13 10:06:38;;;;;;;2.00;1.30;;;;;;;29.55;48.65;95927.50;5140681;27;20471;-54
2022/09/13 10:09:14;;;;;;;2.80;1.48;;;;;;;29.02;51.70;95929.84;5140145;27;20115;-54
2022/09/13 10:11:48;;;;;;;2.58;1.50;;;;;;;29.38;50.19;95931.66;5143508;27;20085;-51
2022/09/13 10:14:37;;;;;;;2.35;1.60;;;;;;;29.98;48.04;95927.88;5141377;27;20074;-49
2022/09/13 10:17:14;;;;;;;4.03;1.65;;;;;;;29.63;50.47;95934.31;5137176;27;20078;-56
2022/09/13 10:19:53;;;;;;;2.53;1.55;;;;;;;30.57;45.11;95914.41;5130188;27;20083;-49
2022/09/13 10:22:22;;;;;;;2.85;1.50;;;;;;;29.08;50.09;95920.59;5133185;27;20108;-52
2022/09/13 10:24:52;;;;;;;2.97;1.83;;;;;;;29.43;50.51;95915.34;5139642;27;20075;-48
2022/09/13 10:27:25;;;;;;;2.47;1.67;;;;;;;30.11;47.39;95909.28;5141675;27;20070;-52
2022/09/13 10:29:58;;;;;;;2.67;1.67;;;;;;;29.69;50.32;95913.34;5136249;27;20455;-51
2022/09/13 10:32:27;;;;;;;3.90;1.50;;;;;;;30.77;48.69;95905.28;5150165;27;20085;-59
2022/09/13 10:34:58;;;;;;;6.10;1.65;;;;;;;31.29;45.38;95904.47;5148642;27;20793;-56
2022/09/13 10:37:30;;;;;;;4.05;1.80;;;;;;;30.74;44.55;95904.72;5147009;27;20091;-57
2022/09/13 10:40:04;;;;;;;1.80;1.60;;;;;;;30.61;44.32;95907.31;5137129;27;20079;-54
2022/09/13 10:42:33;;;;;;;3.10;1.40;;;;;;;30.74;46.08;95902.00;5144372;27;20079;-54
2022/09/13 10:45:02;;;;;;;4.57;1.70;;;;;;;31.65;43.53;95896.66;5134550;27;20082;-55
2022/09/13 10:47:34;;;;;;;3.47;1.67;;;;;;;32.11;41.25;95893.34;5137650;27;20632;-55
2022/09/13 10:50:18;;;;;;;4.32;1.60;;;;;;;32.83;40.18;95886.72;5142924;27;20075;-53
2022/09/13 10:52:49;;;;;;;2.03;1.40;;;;;;;33.09;38.62;95882.41;5138431;27;20082;-49
2022/09/13 10:55:26;;;;;;;3.78;1.30;;;;;;;33.20;39.44;95884.97;5129352;27;20081;-51
2022/09/13 10:57:56;;;;;;;2.83;1.40;;;;;;;31.85;41.03;95889.31;5131780;27;20082;-54
2022/09/13 11:00:34;;;;;;;3.03;1.40;;;;;;;32.91;37.78;95893.41;5141817;27;20725;-51
2022/09/13 11:03:15;;;;;;;1.80;1.20;;;;;;;32.18;39.34;95898.44;5137891;27;20079;-51
2022/09/13 11:05:48;;;;;;;5.28;1.33;;;;;;;33.03;38.21;95891.00;5149316;27;20187;-50
2022/09/13 11:08:37;;;;;;;2.08;1.20;;;;;;;33.13;38.33;95890.81;5132473;27;20082;-51
2022/09/13 11:11:11;;;;;;;2.42;1.20;;;;;;;32.53;37.01;95905.25;5147967;27;20089;-51
2022/09/13 11:13:49;;;;;;;3.47;1.30;;;;;;;32.82;38.08;95896.00;5141424;27;20083;-54
2022/09/13 11:16:28;;;;;;;1.75;1.38;;;;;;;33.14;37.39;95897.94;5147684;27;20086;-53
2022/09/13 11:19:12;;;;;;;1.75;1.08;;;;;;;33.71;36.87;95892.16;5142215;27;20108;-54
2022/09/13 11:21:53;;;;;;;2.58;1.48;;;;;;;32.56;39.04;95901.13;5135431;27;20090;-55
2022/09/13 11:24:50;;;;;;;1.35;1.20;;;;;;;34.05;36.76;95888.94;5149003;27;20529;-48
2022/09/13 11:27:26;;;;;;;2.20;1.30;;;;;;;33.78;37.50;95887.06;5131978;27;20075;-50
2022/09/13 11:30:10;;;;;;;3.75;1.30;;;;;;;34.38;35.02;95885.97;5141466;27;20068;-56
2022/09/13 11:32:49;;;;;;;4.18;1.30;;;;;;;34.24;34.62;95875.91;5134600;27;20127;-51
2022/09/13 11:35:36;;;;;;;5.45;1.00;;;;;;;34.20;36.02;95874.91;5139436;27;20082;-50
2022/09/13 11:38:17;;;;;;;2.75;1.25;;;;;;;34.01;34.57;95874.28;5129423;27;20086;-50
2022/09/13 11:40:51;;;;;;;3.50;1.50;;;;;;;33.27;36.89;95879.91;5136205;27;20066;-54
2022/09/13 11:43:34;;;;;;;4.95;1.40;;;;;;;33.91;37.18;95888.97;5136093;27;20078;-51
2022/09/13 11:46:07;;;;;;;3.47;1.40;;;;;;;34.47;35.13;95879.44;5131395;27;20090;-54
2022/09/13 11:49:21;;;;;;;3.90;1.33;;;;;;;35.06;34.38;95878.53;5147861;27;20713;-50